Time;durP1;ratioP1;P1;durP2;ratioP2;P2;SDS_P1;SDS_P2;PMS_P1;PMS_P2;Temp;Humidity;BMP_temperature;BMP_pressure;BME280_temperature;BME280_humidity;BME280_pressure;Samples;Min_cycle;Max_cycle;Signal;HPM_P1;HPM_P2
2022/02/13 00:02:07;;;;;;;9.38;7.70;;;1.30;99.90;;;;;;5069971;28;20226;-81
2022/02/13 00:04:34;;;;;;;8.68;7.78;;;1.30;99.90;;;;;;5072248;28;20199;-81
2022/02/13 00:07:00;;;;;;;7.28;6.57;;;1.20;99.90;;;;;;5070506;28;20237;-82
2022/02/13 00:09:28;;;;;;;7.90;7.30;;;1.20;99.90;;;;;;5066829;28;20203;-81
2022/02/13 00:11:56;;;;;;;9.25;8.45;;;1.10;99.90;;;;;;5069755;28;20293;-81
2022/02/13 00:14:23;;;;;;;11.13;6.85;;;1.10;99.90;;;;;;5069369;28;20198;-82
2022/02/13 00:16:50;;;;;;;10.35;9.25;;;1.00;99.90;;;;;;5071444;28;20217;-83
2022/02/13 00:19:17;;;;;;;7.78;7.07;;;0.90;99.90;;;;;;5069141;28;20678;-80
2022/02/13 00:21:44;;;;;;;7.90;6.68;;;0.80;99.90;;;;;;5063478;28;20237;-80
2022/02/13 00:24:12;;;;;;;12.35;8.38;;;0.80;99.90;;;;;;5069175;28;20567;-80
2022/02/13 00:26:39;;;;;;;7.80;7.10;;;0.80;99.90;;;;;;5071852;28;20252;-80
2022/02/13 00:29:08;;;;;;;8.98;6.95;;;0.70;99.90;;;;;;5072417;28;20655;-80
2022/02/13 00:31:35;;;;;;;9.63;7.10;;;0.70;99.90;;;;;;5073578;28;20244;-80
2022/02/13 00:34:01;;;;;;;9.85;7.60;;;0.70;99.90;;;;;;5082580;28;20204;-81
2022/02/13 00:36:29;;;;;;;7.88;7.10;;;0.70;99.90;;;;;;5094383;28;20223;-81
2022/02/13 00:38:56;;;;;;;9.60;8.75;;;0.70;99.90;;;;;;5094891;28;20228;-81
2022/02/13 00:41:22;;;;;;;12.45;11.35;;;0.70;99.90;;;;;;5083387;28;20216;-80
2022/02/13 00:43:49;;;;;;;10.45;8.65;;;0.70;99.90;;;;;;5080212;28;20220;-79
2022/02/13 00:46:17;;;;;;;9.25;8.45;;;0.60;99.90;;;;;;5079248;28;20225;-80
2022/02/13 00:48:44;;;;;;;12.63;8.88;;;0.60;99.90;;;;;;5077564;28;20201;-79
2022/02/13 00:51:11;;;;;;;12.52;8.35;;;0.60;99.90;;;;;;5079751;28;20217;-80
2022/02/13 00:53:38;;;;;;;12.40;10.18;;;0.60;99.90;;;;;;5079033;28;20197;-81
2022/02/13 00:56:05;;;;;;;10.60;9.70;;;0.60;99.90;;;;;;5079756;28;20229;-81
2022/02/13 00:58:32;;;;;;;10.00;9.10;;;0.60;99.90;;;;;;5078851;28;20197;-82
2022/02/13 01:00:59;;;;;;;10.90;9.80;;;0.60;99.90;;;;;;5079909;28;20218;-82
2022/02/13 01:03:27;;;;;;;11.43;9.48;;;0.60;99.90;;;;;;5079690;28;20209;-82
2022/02/13 01:05:54;;;;;;;10.35;9.35;;;0.60;99.90;;;;;;5079601;28;20232;-82
2022/02/13 01:08:21;;;;;;;11.75;9.48;;;0.50;99.90;;;;;;5080234;28;20566;-83
2022/02/13 01:10:47;;;;;;;11.18;8.40;;;0.50;99.90;;;;;;5078775;28;20193;-82
2022/02/13 01:13:14;;;;;;;8.65;7.80;;;0.60;99.90;;;;;;5079682;28;20227;-83
2022/02/13 01:15:41;;;;;;;10.52;7.00;;;0.60;99.90;;;;;;5079452;28;20229;-83
2022/02/13 01:18:08;;;;;;;8.60;7.30;;;0.60;99.90;;;;;;5080260;28;20209;-82
2022/02/13 01:20:36;;;;;;;7.63;6.95;;;0.60;99.90;;;;;;5079158;28;20232;-83
2022/02/13 01:23:03;;;;;;;9.15;8.25;;;0.60;99.90;;;;;;5079909;28;20205;-83
2022/02/13 01:25:29;;;;;;;8.52;7.70;;;0.60;99.90;;;;;;5079592;28;20229;-83
2022/02/13 01:27:56;;;;;;;10.10;7.57;;;0.70;99.90;;;;;;5079621;28;20213;-82
2022/02/13 01:30:24;;;;;;;10.07;7.10;;;0.70;99.90;;;;;;5078331;28;20634;-83
2022/02/13 01:32:50;;;;;;;6.70;6.10;;;0.80;99.90;;;;;;5078718;28;20645;-82
2022/02/13 01:35:17;;;;;;;10.38;7.97;;;0.80;99.90;;;;;;5079081;28;20225;-81
2022/02/13 01:37:46;;;;;;;11.98;7.47;;;0.80;99.90;;;;;;5079692;28;20205;-80
2022/02/13 01:40:13;;;;;;;8.43;7.53;;;0.80;99.90;;;;;;5084255;28;20671;-81
2022/02/13 01:42:40;;;;;;;8.30;7.47;;;0.80;99.90;;;;;;5084624;28;20593;-79
2022/02/13 01:45:07;;;;;;;7.70;7.00;;;0.80;99.90;;;;;;5084301;28;20241;-81
2022/02/13 01:47:34;;;;;;;8.32;7.47;;;0.80;99.90;;;;;;5084919;28;20209;-79
2022/02/13 01:50:01;;;;;;;9.20;8.30;;;0.80;99.90;;;;;;5084547;28;20231;-81
2022/02/13 01:52:30;;;;;;;8.20;7.22;;;0.80;99.90;;;;;;5084389;28;20221;-79
2022/02/13 01:54:58;;;;;;;8.68;7.72;;;0.80;99.90;;;;;;5080315;28;20212;-81
2022/02/13 01:57:26;;;;;;;12.10;7.40;;;0.80;99.90;;;;;;5078781;28;20205;-80
2022/02/13 01:59:52;;;;;;;8.60;7.80;;;0.80;99.90;;;;;;5076924;28;20208;-80
2022/02/13 02:02:19;;;;;;;10.15;9.07;;;0.80;99.90;;;;;;5076861;28;20235;-82
2022/02/13 02:04:47;;;;;;;8.73;7.88;;;0.80;99.90;;;;;;5077415;28;20208;-82
2022/02/13 02:07:14;;;;;;;8.35;7.38;;;0.80;99.90;;;;;;5077878;28;20205;-83
2022/02/13 02:09:46;;;;;;;10.35;8.23;;;0.80;99.90;;;;;;5078178;28;20693;-82
2022/02/13 02:12:14;;;;;;;10.38;7.20;;;0.80;99.90;;;;;;5078156;28;20205;-83
2022/02/13 02:14:41;;;;;;;7.72;6.68;;;0.80;99.90;;;;;;5078672;28;20216;-81
2022/02/13 02:17:08;;;;;;;9.38;7.60;;;0.80;99.90;;;;;;5078736;28;20229;-83
2022/02/13 02:19:37;;;;;;;7.18;6.40;;;0.80;99.90;;;;;;5079082;28;20212;-83
2022/02/13 02:22:06;;;;;;;8.68;7.93;;;0.80;99.90;;;;;;5078089;28;20224;-81
2022/02/13 02:24:34;;;;;;;8.00;7.30;;;0.80;99.90;;;;;;5078544;28;20205;-83
2022/02/13 02:27:01;;;;;;;7.80;7.13;;;0.80;99.90;;;;;;5078742;28;20874;-83
2022/02/13 02:29:29;;;;;;;10.18;8.38;;;0.80;99.90;;;;;;5078890;28;20208;-83
2022/02/13 02:31:56;;;;;;;7.63;6.45;;;0.90;99.90;;;;;;5077991;28;20213;-81
2022/02/13 02:34:22;;;;;;;9.02;7.88;;;0.80;99.90;;;;;;5078796;28;20586;-83
2022/02/13 02:36:49;;;;;;;8.85;7.93;;;0.80;99.90;;;;;;5078138;28;20238;-83
2022/02/13 02:39:16;;;;;;;10.25;9.13;;;0.80;99.90;;;;;;5078335;28;20586;-81
2022/02/13 02:41:44;;;;;;;9.60;8.60;;;0.90;99.90;;;;;;5079061;28;20726;-83
2022/02/13 02:44:11;;;;;;;9.80;8.80;;;0.90;99.90;;;;;;5080537;28;20709;-80
2022/02/13 02:46:38;;;;;;;11.13;8.95;;;1.00;99.90;;;;;;5082490;28;20237;-81
2022/02/13 02:49:04;;;;;;;8.63;7.82;;;1.00;99.90;;;;;;5083026;28;20682;-81
2022/02/13 02:51:31;;;;;;;8.90;8.15;;;0.90;99.90;;;;;;5083417;28;20205;-80
2022/02/13 02:53:58;;;;;;;9.85;8.85;;;0.90;99.90;;;;;;5083980;28;20205;-81
2022/02/13 02:56:25;;;;;;;9.80;8.80;;;0.90;99.90;;;;;;5083490;28;20228;-81
2022/02/13 02:58:53;;;;;;;7.72;7.00;;;0.90;99.90;;;;;;5081114;28;20673;-80
2022/02/13 03:01:20;;;;;;;8.30;7.55;;;0.90;99.90;;;;;;5079511;28;20244;-79
2022/02/13 03:03:46;;;;;;;9.25;8.30;;;0.80;99.90;;;;;;5079316;28;20238;-79
2022/02/13 03:06:13;;;;;;;10.00;9.00;;;0.80;99.90;;;;;;5079777;28;20282;-80
2022/02/13 03:08:40;;;;;;;12.00;9.93;;;0.80;99.90;;;;;;5079454;28;20205;-80
2022/02/13 03:11:09;;;;;;;7.50;6.80;;;0.90;99.90;;;;;;5079661;28;20262;-79
2022/02/13 03:13:36;;;;;;;9.93;7.80;;;0.90;99.90;;;;;;5079009;28;20249;-80
2022/02/13 03:16:04;;;;;;;9.13;7.57;;;1.00;99.90;;;;;;5079754;28;20233;-80
2022/02/13 03:18:31;;;;;;;7.97;7.18;;;1.00;99.90;;;;;;5080089;28;20544;-80
2022/02/13 03:20:59;;;;;;;6.20;5.60;;;1.00;99.90;;;;;;5079550;28;20222;-79
2022/02/13 03:23:26;;;;;;;7.10;6.50;;;1.10;99.90;;;;;;5079614;28;20205;-80
2022/02/13 03:25:53;;;;;;;9.95;7.25;;;1.20;99.90;;;;;;5079609;28;20228;-79
2022/02/13 03:28:20;;;;;;;8.32;6.75;;;1.20;99.90;;;;;;5078986;28;20205;-80
2022/02/13 03:30:47;;;;;;;12.35;7.22;;;1.20;99.90;;;;;;5078915;28;20216;-79
2022/02/13 03:33:15;;;;;;;7.70;6.80;;;1.20;99.90;;;;;;5078551;28;20209;-80
2022/02/13 03:35:42;;;;;;;9.10;7.57;;;1.10;99.90;;;;;;5079643;28;20225;-80
2022/02/13 03:38:09;;;;;;;7.88;6.50;;;1.10;99.90;;;;;;5079626;28;20391;-80
2022/02/13 03:40:36;;;;;;;9.65;7.47;;;1.10;99.90;;;;;;5078577;28;20677;-80
2022/02/13 03:43:05;;;;;;;9.13;7.25;;;1.00;99.90;;;;;;5079272;28;20210;-80
2022/02/13 03:45:32;;;;;;;7.85;7.15;;;1.00;99.90;;;;;;5078730;28;20229;-80
2022/02/13 03:47:58;;;;;;;8.63;7.72;;;0.90;99.90;;;;;;5079199;28;20209;-80
2022/02/13 03:50:26;;;;;;;9.93;6.90;;;1.00;99.90;;;;;;5078613;28;20380;-79
2022/02/13 03:52:53;;;;;;;9.93;7.88;;;0.90;99.90;;;;;;5078164;28;20209;-80
2022/02/13 03:55:20;;;;;;;13.68;8.30;;;0.90;99.90;;;;;;5078798;28;20221;-80
2022/02/13 03:57:47;;;;;;;11.18;6.93;;;0.90;99.90;;;;;;5078507;28;20209;-80
2022/02/13 04:00:14;;;;;;;8.23;7.38;;;0.90;99.90;;;;;;5078345;28;20240;-80
2022/02/13 04:02:42;;;;;;;9.27;7.10;;;0.90;99.90;;;;;;5078532;28;20225;-80
2022/02/13 04:05:10;;;;;;;10.55;8.15;;;0.90;99.90;;;;;;5080860;28;20226;-81
2022/02/13 04:07:39;;;;;;;6.72;6.07;;;0.90;99.90;;;;;;5081583;28;20296;-80
2022/02/13 04:10:07;;;;;;;8.63;7.13;;;0.90;99.90;;;;;;5081424;28;20211;-80
2022/02/13 04:12:34;;;;;;;8.52;7.80;;;0.90;99.90;;;;;;5081321;28;20205;-83
2022/02/13 04:15:01;;;;;;;8.57;7.47;;;0.90;99.90;;;;;;5080418;28;20687;-82
2022/02/13 04:17:28;;;;;;;14.57;8.70;;;0.90;99.90;;;;;;5081213;28;20205;-83
2022/02/13 04:19:55;;;;;;;9.32;7.85;;;0.80;99.90;;;;;;5079848;28;20212;-82
2022/02/13 04:22:21;;;;;;;10.05;8.07;;;0.80;99.90;;;;;;5079212;28;20232;-83
2022/02/13 04:24:49;;;;;;;10.50;7.72;;;0.80;99.90;;;;;;5078594;28;20233;-83
2022/02/13 04:27:16;;;;;;;10.13;8.27;;;0.70;99.90;;;;;;5079449;28;20209;-82
2022/02/13 04:29:43;;;;;;;11.15;7.80;;;0.80;99.90;;;;;;5079742;28;20584;-82
2022/02/13 04:32:10;;;;;;;9.00;7.97;;;0.80;99.90;;;;;;5078833;28;20206;-83
2022/02/13 04:34:37;;;;;;;11.60;8.35;;;0.70;99.90;;;;;;5078993;28;20204;-81
2022/02/13 04:37:04;;;;;;;10.38;9.30;;;0.80;99.90;;;;;;5079270;28;20229;-83
2022/02/13 04:39:31;;;;;;;9.25;7.65;;;0.80;99.90;;;;;;5078852;28;20205;-83
2022/02/13 04:41:59;;;;;;;8.80;7.50;;;0.80;99.90;;;;;;5079118;28;20688;-82
2022/02/13 04:44:26;;;;;;;7.78;7.05;;;0.80;99.90;;;;;;5079343;28;20217;-82
2022/02/13 04:46:53;;;;;;;8.00;6.10;;;0.80;99.90;;;;;;5078885;28;20248;-82
2022/02/13 04:49:20;;;;;;;8.52;6.80;;;0.90;99.90;;;;;;5079976;28;20216;-81
2022/02/13 04:51:47;;;;;;;10.30;8.32;;;0.90;99.90;;;;;;5080361;28;20211;-81
2022/02/13 04:54:13;;;;;;;7.70;7.00;;;0.80;99.90;;;;;;5081111;28;20211;-81
2022/02/13 04:56:40;;;;;;;8.52;7.05;;;0.80;99.90;;;;;;5081158;28;20229;-81
2022/02/13 04:59:09;;;;;;;9.55;7.93;;;0.90;99.90;;;;;;5080426;28;20204;-80
2022/02/13 05:01:36;;;;;;;10.63;6.05;;;0.90;99.90;;;;;;5078949;28;20232;-81
2022/02/13 05:04:03;;;;;;;8.82;7.85;;;0.90;99.90;;;;;;5080092;28;20205;-83
2022/02/13 05:06:31;;;;;;;7.18;6.50;;;0.90;99.90;;;;;;5079292;28;20225;-83
2022/02/13 05:08:58;;;;;;;7.70;5.65;;;0.90;99.90;;;;;;5079854;28;20212;-82
2022/02/13 05:11:26;;;;;;;7.97;6.13;;;1.00;99.90;;;;;;5079960;28;20201;-83
2022/02/13 05:13:53;;;;;;;6.68;5.72;;;1.10;99.90;;;;;;5080134;28;20288;-83
2022/02/13 05:16:21;;;;;;;8.43;5.82;;;1.20;99.90;;;;;;5079383;28;20225;-82
2022/02/13 05:18:48;;;;;;;5.18;4.30;;;1.20;99.90;;;;;;5079230;28;20202;-81
2022/02/13 05:21:15;;;;;;;7.03;6.38;;;1.30;99.90;;;;;;5078612;28;20566;-83
2022/02/13 05:23:42;;;;;;;6.63;5.78;;;1.30;99.90;;;;;;5079296;28;20213;-81
2022/02/13 05:26:11;;;;;;;6.55;5.68;;;1.30;99.90;;;;;;5079104;28;20232;-81
2022/02/13 05:28:38;;;;;;;10.38;5.50;;;1.40;99.90;;;;;;5078208;28;20209;-78
2022/02/13 05:31:04;;;;;;;12.20;5.03;;;1.40;99.90;;;;;;5078092;28;20231;-81
2022/02/13 05:33:32;;;;;;;6.25;5.53;;;1.50;99.90;;;;;;5079763;28;20202;-81
2022/02/13 05:35:59;;;;;;;7.30;5.63;;;1.50;99.90;;;;;;5079386;28;20246;-81
2022/02/13 05:38:26;;;;;;;10.38;6.22;;;1.60;99.90;;;;;;5078712;28;20472;-81
2022/02/13 05:40:53;;;;;;;5.35;4.95;;;1.60;99.90;;;;;;5078524;28;20227;-81
2022/02/13 05:43:19;;;;;;;6.57;5.35;;;1.70;99.90;;;;;;5078565;28;20233;-81
2022/02/13 05:45:46;;;;;;;6.72;6.05;;;1.70;99.90;;;;;;5079378;28;20238;-81
2022/02/13 05:48:13;;;;;;;6.00;5.30;;;1.80;99.90;;;;;;5078528;28;20205;-81
2022/02/13 05:50:42;;;;;;;5.25;4.75;;;1.80;99.90;;;;;;5078209;28;20239;-81
2022/02/13 05:53:09;;;;;;;5.82;5.30;;;1.80;99.90;;;;;;5079015;28;20207;-81
2022/02/13 05:55:36;;;;;;;5.97;5.35;;;1.90;99.90;;;;;;5078022;28;20230;-81
2022/02/13 05:58:03;;;;;;;4.13;3.75;;;1.80;99.90;;;;;;5078883;28;20205;-81
2022/02/13 06:00:30;;;;;;;11.45;5.63;;;1.90;99.90;;;;;;5077899;28;20683;-81
2022/02/13 06:02:56;;;;;;;7.70;5.30;;;2.00;99.90;;;;;;5078613;28;20228;-80
2022/02/13 06:05:23;;;;;;;6.80;5.68;;;1.90;99.90;;;;;;5078938;28;20228;-82
2022/02/13 06:07:51;;;;;;;7.45;5.47;;;1.90;99.90;;;;;;5079471;28;20681;-80
2022/02/13 06:10:18;;;;;;;6.03;5.07;;;1.90;99.90;;;;;;5079233;28;20210;-80
2022/02/13 06:12:45;;;;;;;6.32;4.88;;;2.00;99.90;;;;;;5079250;28;20206;-81
2022/02/13 06:15:12;;;;;;;6.50;5.90;;;2.00;99.90;;;;;;5079172;28;20230;-81
2022/02/13 06:17:39;;;;;;;5.63;4.20;;;2.00;99.90;;;;;;5081272;28;20305;-81
2022/02/13 06:20:07;;;;;;;7.70;5.70;;;2.00;99.90;;;;;;5083083;28;20205;-82
2022/02/13 06:22:34;;;;;;;6.70;6.00;;;2.00;99.90;;;;;;5082026;28;20220;-82
2022/02/13 06:25:02;;;;;;;8.80;5.68;;;2.00;99.90;;;;;;5081757;28;20233;-81
2022/02/13 06:27:28;;;;;;;4.90;4.60;;;2.00;99.90;;;;;;5082059;28;20581;-81
2022/02/13 06:29:55;;;;;;;8.95;6.60;;;2.00;99.90;;;;;;5082291;28;20814;-80
2022/02/13 06:32:22;;;;;;;7.55;6.85;;;2.00;99.90;;;;;;5081911;28;20207;-82
2022/02/13 06:34:48;;;;;;;5.55;5.05;;;1.90;99.90;;;;;;5081711;28;20217;-82
2022/02/13 06:37:15;;;;;;;5.45;4.95;;;2.00;99.90;;;;;;5082163;28;20201;-82
2022/02/13 06:39:42;;;;;;;8.15;5.95;;;2.10;99.90;;;;;;5081696;28;20211;-82
2022/02/13 06:42:10;;;;;;;5.68;5.22;;;2.10;99.90;;;;;;5082147;28;20226;-82
2022/02/13 06:44:37;;;;;;;7.60;5.72;;;2.10;99.90;;;;;;5081911;28;20202;-82
2022/02/13 06:47:04;;;;;;;6.43;5.28;;;2.10;99.90;;;;;;5083131;28;20319;-81
2022/02/13 06:49:31;;;;;;;6.25;5.70;;;2.10;99.90;;;;;;5083100;28;20220;-81
2022/02/13 06:51:58;;;;;;;8.80;6.32;;;2.20;99.90;;;;;;5082068;28;20203;-81
2022/02/13 06:54:25;;;;;;;6.63;5.10;;;2.10;99.90;;;;;;5083231;28;20267;-81
2022/02/13 06:56:51;;;;;;;7.20;5.20;;;2.20;99.90;;;;;;5083253;28;20232;-81
2022/02/13 06:59:19;;;;;;;5.80;5.10;;;2.30;99.90;;;;;;5082654;28;20211;-81
2022/02/13 07:01:46;;;;;;;6.53;5.07;;;2.20;99.90;;;;;;5081883;28;20219;-82
2022/02/13 07:04:13;;;;;;;7.15;5.18;;;2.30;99.90;;;;;;5083386;28;20215;-81
2022/02/13 07:06:40;;;;;;;6.80;5.80;;;2.30;99.90;;;;;;5082235;28;20223;-83
2022/02/13 07:09:07;;;;;;;7.45;6.75;;;2.40;99.90;;;;;;5081155;28;20686;-81
2022/02/13 07:11:34;;;;;;;6.50;5.80;;;2.30;99.90;;;;;;5081698;28;20210;-83
2022/02/13 07:14:00;;;;;;;8.73;7.55;;;2.30;99.90;;;;;;5081550;28;20201;-82
2022/02/13 07:16:29;;;;;;;6.88;5.55;;;2.30;99.90;;;;;;5081578;28;20259;-82
2022/02/13 07:18:56;;;;;;;5.57;5.05;;;2.30;99.90;;;;;;5080834;28;20272;-83
2022/02/13 07:21:23;;;;;;;9.45;6.57;;;2.30;99.90;;;;;;5080884;28;20574;-82
2022/02/13 07:23:50;;;;;;;7.97;5.90;;;2.40;99.90;;;;;;5080963;28;20249;-82
2022/02/13 07:26:17;;;;;;;7.70;6.50;;;2.40;99.90;;;;;;5081010;28;20326;-81
2022/02/13 07:29:02;;;;;;;7.10;6.40;;;2.40;99.90;;;;;;5079676;28;20211;-82
2022/02/13 07:31:33;;;;;;;7.43;5.15;;;2.50;99.90;;;;;;5081094;28;20672;-83
2022/02/13 07:34:00;;;;;;;5.45;5.05;;;2.60;99.90;;;;;;5081812;28;20203;-83
2022/02/13 07:36:28;;;;;;;5.93;5.22;;;2.80;99.90;;;;;;5081404;28;20235;-81
2022/02/13 07:38:54;;;;;;;6.07;5.57;;;2.80;99.90;;;;;;5081043;28;20216;-82
2022/02/13 07:41:21;;;;;;;7.95;6.20;;;2.90;99.90;;;;;;5080282;28;20213;-82
2022/02/13 07:43:49;;;;;;;6.70;5.50;;;2.90;99.90;;;;;;5080694;28;20237;-83
2022/02/13 07:46:16;;;;;;;6.82;4.57;;;3.00;99.90;;;;;;5080221;28;20594;-82
2022/02/13 07:48:44;;;;;;;5.88;5.38;;;3.10;99.90;;;;;;5081327;28;20209;-83
2022/02/13 07:51:11;;;;;;;5.72;4.68;;;3.10;99.90;;;;;;5080678;28;20220;-83
2022/02/13 07:53:39;;;;;;;5.40;4.38;;;3.20;99.90;;;;;;5080611;28;21010;-83
2022/02/13 07:56:07;;;;;;;6.97;5.82;;;3.20;99.90;;;;;;5081404;28;20307;-83
2022/02/13 07:58:34;;;;;;;6.00;5.40;;;3.40;99.90;;;;;;5080823;28;20220;-81
2022/02/13 08:01:01;;;;;;;9.60;6.20;;;3.50;99.90;;;;;;5081368;28;20208;-83
2022/02/13 08:03:28;;;;;;;5.75;5.25;;;3.60;99.90;;;;;;5080958;28;20236;-82
2022/02/13 08:05:56;;;;;;;8.10;5.70;;;3.60;99.90;;;;;;5081037;28;20243;-83
2022/02/13 08:08:23;;;;;;;8.55;5.50;;;3.70;99.90;;;;;;5081189;28;20216;-83
2022/02/13 08:10:49;;;;;;;11.50;5.90;;;3.80;99.90;;;;;;5081049;28;20215;-83
2022/02/13 08:13:17;;;;;;;5.30;4.90;;;3.90;99.90;;;;;;5080326;28;20211;-82
2022/02/13 08:15:44;;;;;;;10.63;5.90;;;4.00;99.90;;;;;;5080362;28;20232;-82
2022/02/13 08:18:13;;;;;;;5.40;4.90;;;4.10;99.90;;;;;;5079596;28;20231;-83
2022/02/13 08:20:40;;;;;;;5.18;4.75;;;4.20;99.90;;;;;;5080273;28;20212;-83
2022/02/13 08:23:10;;;;;;;5.88;5.32;;;4.30;99.90;;;;;;5079881;28;20232;-82
2022/02/13 08:25:37;;;;;;;6.28;5.65;;;4.30;99.90;;;;;;5080467;28;20232;-82
2022/02/13 08:28:05;;;;;;;6.28;5.70;;;4.40;99.90;;;;;;5081223;28;20205;-83
2022/02/13 08:30:32;;;;;;;6.20;5.80;;;4.40;99.90;;;;;;5080927;28;20252;-83
2022/02/13 08:33:00;;;;;;;7.55;5.22;;;4.50;99.90;;;;;;5080990;28;20197;-83
2022/02/13 08:35:26;;;;;;;4.88;4.47;;;4.40;99.90;;;;;;5081668;28;20250;-83
2022/02/13 08:37:53;;;;;;;5.63;5.10;;;4.40;99.90;;;;;;5081567;28;20219;-83
2022/02/13 08:40:22;;;;;;;5.30;4.80;;;4.50;99.90;;;;;;5080843;28;20298;-83
2022/02/13 08:42:48;;;;;;;6.22;5.60;;;4.60;99.90;;;;;;5080131;28;20225;-83
2022/02/13 08:45:15;;;;;;;5.75;5.20;;;4.70;99.90;;;;;;5081474;28;20722;-83
2022/02/13 08:47:42;;;;;;;9.38;5.75;;;4.70;99.90;;;;;;5076899;28;20572;-82
2022/02/13 08:50:09;;;;;;;5.20;4.55;;;4.90;99.90;;;;;;5076285;28;20216;-81
2022/02/13 08:52:36;;;;;;;7.32;5.18;;;5.00;99.90;;;;;;5076650;28;20213;-82
2022/02/13 08:55:04;;;;;;;6.30;5.18;;;5.10;99.90;;;;;;5076911;28;20227;-82
2022/02/13 08:57:32;;;;;;;9.80;5.65;;;5.10;99.90;;;;;;5076165;28;20212;-82
2022/02/13 08:59:59;;;;;;;6.60;4.80;;;5.30;99.90;;;;;;5076436;28;20215;-82
2022/02/13 09:02:25;;;;;;;7.68;5.55;;;5.40;99.90;;;;;;5075904;28;20684;-81
2022/02/13 09:04:52;;;;;;;8.82;5.13;;;5.50;99.90;;;;;;5077133;28;20205;-82
2022/02/13 09:07:19;;;;;;;7.35;6.13;;;5.60;99.90;;;;;;5076611;28;20205;-81
2022/02/13 09:09:47;;;;;;;8.43;6.38;;;5.70;99.90;;;;;;5076241;28;20575;-82
2022/02/13 09:12:15;;;;;;;6.65;6.05;;;5.80;99.90;;;;;;5076897;28;20224;-82
2022/02/13 09:14:43;;;;;;;9.07;8.23;;;5.90;99.90;;;;;;5076078;28;20197;-82
2022/02/13 09:17:09;;;;;;;8.07;7.28;;;6.00;99.90;;;;;;5076107;28;20227;-83
2022/02/13 09:19:36;;;;;;;8.48;6.85;;;6.10;99.90;;;;;;5075255;28;20205;-82
2022/02/13 09:22:03;;;;;;;8.32;7.53;;;6.00;99.90;;;;;;5075807;28;20211;-82
2022/02/13 09:24:30;;;;;;;8.88;6.40;;;6.10;99.90;;;;;;5075574;28;20228;-82
2022/02/13 09:26:57;;;;;;;7.40;6.65;;;6.30;99.90;;;;;;5075894;28;20248;-82
2022/02/13 09:29:24;;;;;;;9.15;6.63;;;6.40;99.90;;;;;;5075472;28;20220;-82
2022/02/13 09:31:52;;;;;;;8.20;7.38;;;6.50;99.90;;;;;;5075960;28;20209;-82
2022/02/13 09:34:25;;;;;;;9.98;7.88;;;6.60;99.90;;;;;;5076021;28;20224;-82
2022/02/13 09:36:52;;;;;;;8.07;7.30;;;6.60;99.90;;;;;;5078387;28;20224;-82
2022/02/13 09:39:18;;;;;;;7.65;6.82;;;6.70;99.90;;;;;;5076828;28;20221;-82
2022/02/13 09:41:46;;;;;;;13.85;7.25;;;6.70;99.90;;;;;;5076460;28;20639;-81
2022/02/13 09:44:12;;;;;;;10.85;7.13;;;6.80;99.90;;;;;;5080212;28;20225;-83
2022/02/13 09:46:41;;;;;;;9.15;6.55;;;6.90;99.90;;;;;;5081809;28;20240;-83
2022/02/13 09:49:09;;;;;;;9.07;5.93;;;7.00;99.90;;;;;;5081515;28;20211;-80
2022/02/13 09:51:39;;;;;;;9.02;5.63;;;7.10;99.80;;;;;;5078382;28;20201;-87
2022/02/13 09:54:06;;;;;;;7.93;6.10;;;7.20;99.90;;;;;;5079170;28;20209;-81
2022/02/13 09:56:34;;;;;;;7.47;6.65;;;7.40;99.90;;;;;;5078332;28;20232;-81
2022/02/13 09:59:01;;;;;;;9.18;6.60;;;7.50;99.90;;;;;;5080136;28;20205;-81
2022/02/13 10:01:38;;;;;;;9.80;7.05;;;7.60;99.50;;;;;;5079134;28;20214;-81
2022/02/13 10:04:06;;;;;;;11.20;7.45;;;7.90;99.40;;;;;;5076244;28;20220;-82
2022/02/13 10:06:41;;;;;;;11.50;6.85;;;8.00;98.90;;;;;;5059542;28;20309;-81
2022/02/13 10:09:13;;;;;;;13.15;9.38;;;8.20;99.00;;;;;;5067713;28;20205;-83
2022/02/13 10:11:43;;;;;;;13.77;9.20;;;8.30;98.80;;;;;;5078561;28;20237;-83
2022/02/13 10:14:14;;;;;;;7.95;6.57;;;8.50;98.70;;;;;;5078400;28;20718;-83
2022/02/13 10:16:49;;;;;;;10.50;9.43;;;8.60;98.00;;;;;;5079624;28;20816;-83
2022/02/13 10:19:17;;;;;;;9.25;7.40;;;8.80;97.70;;;;;;5078453;28;20202;-82
2022/02/13 10:21:47;;;;;;;8.82;7.38;;;8.90;97.30;;;;;;5079831;28;20197;-82
2022/02/13 10:24:25;;;;;;;7.80;7.10;;;9.00;96.80;;;;;;5081925;28;20304;-82
2022/02/13 10:27:09;;;;;;;8.60;7.80;;;9.10;96.50;;;;;;5080330;28;20241;-82
2022/02/13 10:29:37;;;;;;;8.30;7.60;;;9.30;96.70;;;;;;5078679;28;20229;-82
2022/02/13 10:32:19;;;;;;;10.07;8.70;;;9.30;96.10;;;;;;5079040;28;20641;-82
2022/02/13 10:35:04;;;;;;;11.02;10.13;;;9.50;95.90;;;;;;5079916;28;20218;-81
2022/02/13 10:37:55;;;;;;;9.47;7.70;;;9.60;96.00;;;;;;5081783;28;20194;-82
2022/02/13 10:40:24;;;;;;;10.82;7.60;;;9.80;95.70;;;;;;5074310;28;20452;-82
2022/02/13 10:43:00;;;;;;;8.90;8.00;;;9.90;95.60;;;;;;5080455;28;20205;-83
2022/02/13 10:45:29;;;;;;;10.87;7.60;;;10.10;94.10;;;;;;5079113;28;20826;-83
2022/02/13 10:47:58;;;;;;;10.40;8.23;;;10.20;94.80;;;;;;5076163;28;20449;-81
2022/02/13 10:50:26;;;;;;;8.67;7.60;;;10.30;93.80;;;;;;5073341;28;20450;-82
2022/02/13 10:52:58;;;;;;;8.87;8.07;;;10.40;93.90;;;;;;5074113;28;20449;-81
2022/02/13 10:55:26;;;;;;;9.33;8.53;;;10.50;94.30;;;;;;5073733;28;21013;-80
2022/02/13 10:57:54;;;;;;;9.87;8.60;;;10.70;93.60;;;;;;5076070;28;20508;-80
2022/02/13 11:00:21;;;;;;;13.33;7.73;;;10.90;93.20;;;;;;5072802;28;20459;-81
2022/02/13 11:02:50;;;;;;;8.13;7.40;;;11.10;92.90;;;;;;5071121;28;21101;-80
2022/02/13 11:05:21;;;;;;;7.97;7.27;;;11.30;92.50;;;;;;5078800;28;20490;-81
2022/02/13 11:07:49;;;;;;;8.20;7.40;;;11.60;92.00;;;;;;5079167;28;20451;-78
2022/02/13 11:10:24;;;;;;;8.57;7.70;;;11.90;91.40;;;;;;5077570;28;20451;-82
2022/02/13 11:12:54;;;;;;;7.70;6.93;;;12.60;90.90;;;;;;5077233;28;20450;-81
2022/02/13 11:15:23;;;;;;;7.73;6.80;;;13.30;89.80;;;;;;5077357;28;20562;-81
2022/02/13 11:17:52;;;;;;;5.73;5.23;;;13.90;87.10;;;;;;5076581;28;20538;-81
2022/02/13 11:20:20;;;;;;;5.90;5.37;;;13.80;79.80;;;;;;5076656;28;20451;-81
2022/02/13 11:22:53;;;;;;;4.63;4.33;;;13.50;78.40;;;;;;5077203;28;20982;-80
2022/02/13 11:25:51;;;;;;;7.77;5.00;;;13.30;78.20;;;;;;5076730;28;20489;-81
2022/02/13 11:28:19;;;;;;;5.73;4.47;;;13.40;77.30;;;;;;5064856;28;20440;-81
2022/02/13 11:30:49;;;;;;;6.17;5.57;;;13.80;76.90;;;;;;5074503;28;20444;-79
2022/02/13 11:33:44;;;;;;;5.30;4.80;;;14.30;75.60;;;;;;5069237;28;20451;-78
2022/02/13 11:36:13;;;;;;;5.90;4.67;;;14.40;72.40;;;;;;5073076;28;20471;-79
2022/02/13 11:38:57;;;;;;;5.93;4.30;;;14.50;72.20;;;;;;5069364;28;20506;-80
2022/02/13 11:42:06;;;;;;;8.37;4.50;;;14.90;72.30;;;;;;5064942;28;20444;-80
2022/02/13 11:44:42;;;;;;;5.67;4.23;;;15.50;67.90;;;;;;5047809;28;20507;-80
2022/02/13 11:47:11;;;;;;;4.47;4.00;;;15.90;64.60;;;;;;5063940;28;20469;-81
2022/02/13 11:50:26;;;;;;;4.90;4.50;;;16.30;64.20;;;;;;5066497;28;20441;-81
2022/02/13 11:52:58;;;;;;;5.40;4.00;;;16.30;61.20;;;;;;5073494;28;20464;-80
2022/02/13 11:55:27;;;;;;;4.73;4.23;;;16.20;59.40;;;;;;5072469;28;21170;-79
2022/02/13 11:57:56;;;;;;;5.17;4.60;;;15.70;59.10;;;;;;5066534;28;20451;-79
2022/02/13 12:00:38;;;;;;;4.60;4.20;;;15.60;59.20;;;;;;5073087;28;20933;-79
2022/02/13 12:03:15;;;;;;;4.10;3.57;;;15.50;59.80;;;;;;5070290;28;20441;-79
2022/02/13 12:05:42;;;;;;;3.97;3.47;;;15.50;59.50;;;;;;5056176;28;20509;-80
2022/02/13 12:08:09;;;;;;;4.80;4.20;;;15.90;58.80;;;;;;5071794;28;20453;-80
2022/02/13 12:10:39;;;;;;;4.80;4.33;;;16.10;58.30;;;;;;5070777;28;20542;-81
2022/02/13 12:13:11;;;;;;;4.60;4.20;;;16.30;58.00;;;;;;5074561;28;20488;-81
2022/02/13 12:15:41;;;;;;;5.70;4.20;;;16.50;57.60;;;;;;5071451;28;20484;-80
2022/02/13 12:18:10;;;;;;;5.00;4.53;;;16.50;56.00;;;;;;5069677;28;20445;-81
2022/02/13 12:20:38;;;;;;;4.50;3.90;;;16.60;56.40;;;;;;5070517;28;20441;-80
2022/02/13 12:23:07;;;;;;;4.70;4.20;;;16.70;56.70;;;;;;5068995;28;20452;-80
2022/02/13 12:25:35;;;;;;;5.43;4.40;;;17.00;57.30;;;;;;5074530;28;20887;-80
2022/02/13 12:28:03;;;;;;;6.20;4.40;;;17.50;54.40;;;;;;5068302;28;21203;-78
2022/02/13 12:30:30;;;;;;;7.10;4.27;;;17.30;53.50;;;;;;5069882;28;20446;-80
2022/02/13 12:32:59;;;;;;;4.80;4.30;;;17.10;54.50;;;;;;5072467;28;20461;-81
2022/02/13 12:35:31;;;;;;;5.37;3.43;;;16.70;53.80;;;;;;5074909;28;20461;-80
2022/02/13 12:37:59;;;;;;;4.20;3.80;;;17.10;53.90;;;;;;5075057;28;20818;-80
2022/02/13 12:40:28;;;;;;;4.20;3.87;;;17.10;52.90;;;;;;5075133;28;20484;-80
2022/02/13 12:42:57;;;;;;;4.60;4.20;;;17.20;53.40;;;;;;5078114;28;20477;-80
2022/02/13 12:45:26;;;;;;;5.40;3.73;;;17.20;53.60;;;;;;5057724;28;20493;-80
2022/02/13 12:47:54;;;;;;;4.97;4.20;;;17.30;53.40;;;;;;5077678;28;20445;-80
2022/02/13 12:50:24;;;;;;;4.43;3.93;;;17.90;53.80;;;;;;5078653;28;20461;-79
2022/02/13 12:52:52;;;;;;;5.37;4.20;;;18.20;52.60;;;;;;5078067;28;20446;-81
2022/02/13 12:55:21;;;;;;;4.33;3.93;;;18.40;52.40;;;;;;5078511;28;20470;-82
2022/02/13 12:57:52;;;;;;;5.40;4.50;;;18.70;51.90;;;;;;5071141;28;20455;-82
2022/02/13 13:00:21;;;;;;;4.67;4.10;;;19.00;53.20;;;;;;5079553;28;20482;-84